Time;durP1;ratioP1;P1;durP2;ratioP2;P2;SDS_P1;SDS_P2;PMS_P1;PMS_P2;Temp;Humidity;BMP_temperature;BMP_pressure;BME280_temperature;BME280_humidity;BME280_pressure;Samples;Min_cycle;Max_cycle;Signal;HPM_P1;HPM_P2
2021/07/28 00:02:00;;;;;;;7.35;3.67;;;21.50;83.20;;;;;;5073468;28;20016;-68
2021/07/28 00:04:26;;;;;;;7.18;3.25;;;21.50;83.20;;;;;;5073136;28;20031;-68
2021/07/28 00:06:51;;;;;;;5.95;3.40;;;21.50;83.00;;;;;;5073409;28;20052;-68
2021/07/28 00:09:17;;;;;;;6.88;3.28;;;21.50;83.20;;;;;;5073245;28;20024;-68
2021/07/28 00:11:43;;;;;;;6.30;3.30;;;21.50;83.30;;;;;;5072002;28;20021;-68
2021/07/28 00:14:08;;;;;;;6.28;2.88;;;21.50;83.30;;;;;;5073213;28;20374;-67
2021/07/28 00:16:34;;;;;;;7.70;3.30;;;21.50;83.30;;;;;;5072900;28;20024;-68
2021/07/28 00:24:15;;;;;;;6.10;2.95;;;21.40;83.30;;;;;;5072634;28;20032;-65
2021/07/28 00:26:40;;;;;;;12.20;3.50;;;21.40;83.50;;;;;;5071850;28;20016;-68
2021/07/28 00:29:06;;;;;;;5.82;3.30;;;21.40;83.70;;;;;;5072764;28;20033;-68
2021/07/28 00:31:32;;;;;;;6.30;3.22;;;21.40;83.50;;;;;;5074310;28;20024;-67
2021/07/28 00:33:57;;;;;;;7.28;3.78;;;21.40;83.60;;;;;;5071038;28;20082;-68
2021/07/28 00:36:23;;;;;;;6.72;3.17;;;21.40;83.60;;;;;;5072412;28;20397;-68
2021/07/28 00:38:48;;;;;;;7.88;3.17;;;21.40;83.70;;;;;;5072597;28;20063;-67
2021/07/28 00:41:14;;;;;;;7.90;3.42;;;21.40;83.70;;;;;;5072751;28;20033;-68
2021/07/28 00:43:40;;;;;;;5.85;3.20;;;21.40;83.70;;;;;;5072632;28;20024;-68
2021/07/28 00:46:06;;;;;;;5.63;2.83;;;21.40;83.70;;;;;;5072270;28;20029;-68
2021/07/28 00:48:31;;;;;;;8.57;3.33;;;21.40;83.80;;;;;;5072575;28;20028;-68
2021/07/28 00:50:57;;;;;;;6.70;3.50;;;21.40;83.80;;;;;;5072326;28;20469;-68
2021/07/28 00:53:24;;;;;;;6.40;3.38;;;21.40;83.80;;;;;;5071190;28;20036;-69
2021/07/28 00:55:52;;;;;;;6.53;3.05;;;21.30;83.80;;;;;;5072053;28;20547;-67
2021/07/28 00:58:18;;;;;;;6.05;3.15;;;21.40;83.80;;;;;;5072333;28;20508;-68
2021/07/28 01:00:44;;;;;;;9.02;3.50;;;21.40;83.90;;;;;;5072237;28;20035;-68
2021/07/28 01:03:10;;;;;;;8.48;2.97;;;21.30;83.80;;;;;;5071006;28;20025;-68
2021/07/28 01:05:36;;;;;;;7.65;3.33;;;21.30;83.80;;;;;;5070531;28;20021;-68
2021/07/28 01:08:02;;;;;;;6.20;2.90;;;21.30;83.80;;;;;;5072175;28;20025;-68
2021/07/28 01:10:28;;;;;;;8.70;3.33;;;21.30;83.80;;;;;;5070748;28;20409;-68
2021/07/28 01:12:55;;;;;;;6.75;3.47;;;21.30;83.90;;;;;;5070828;28;20017;-67
2021/07/28 01:18:13;;;;;;;5.55;3.17;;;21.30;83.80;;;;;;5071954;28;20043;-68
2021/07/28 01:20:43;;;;;;;9.63;3.65;;;21.30;83.90;;;;;;5070656;28;20035;-68
2021/07/28 01:23:28;;;;;;;5.43;2.70;;;21.30;84.10;;;;;;5072004;28;20028;-68
2021/07/28 01:25:55;;;;;;;6.72;3.30;;;21.30;84.10;;;;;;5071645;28;20028;-68
2021/07/28 01:28:22;;;;;;;6.03;3.25;;;21.30;84.10;;;;;;5071833;28;20036;-67
2021/07/28 01:31:06;;;;;;;7.03;2.95;;;21.30;83.90;;;;;;5070667;28;20567;-68
2021/07/28 01:33:34;;;;;;;7.00;3.10;;;21.30;84.10;;;;;;5070279;28;20662;-68
2021/07/28 01:36:01;;;;;;;6.05;3.13;;;21.30;83.90;;;;;;5071562;28;20039;-68
2021/07/28 01:38:27;;;;;;;5.45;2.80;;;21.20;83.90;;;;;;5071570;28;20086;-68
2021/07/28 01:40:56;;;;;;;5.57;3.10;;;21.30;84.00;;;;;;5071680;28;20466;-68
2021/07/28 01:43:23;;;;;;;7.35;3.00;;;21.30;84.00;;;;;;5071672;28;20016;-68
2021/07/28 01:45:49;;;;;;;5.78;3.13;;;21.30;84.00;;;;;;5070161;28;20025;-68
2021/07/28 01:48:15;;;;;;;5.88;2.90;;;21.30;83.90;;;;;;5071753;28;20025;-68
2021/07/28 01:50:44;;;;;;;6.65;3.40;;;21.30;84.00;;;;;;5070335;28;20025;-68
2021/07/28 01:53:10;;;;;;;5.25;2.95;;;21.30;84.20;;;;;;5070326;28;20123;-68
2021/07/28 01:55:35;;;;;;;5.75;3.25;;;21.30;84.10;;;;;;5071345;28;20558;-68
2021/07/28 01:58:01;;;;;;;5.63;2.90;;;21.20;84.20;;;;;;5070304;28;20036;-68
2021/07/28 02:00:27;;;;;;;6.57;3.10;;;21.20;84.20;;;;;;5070248;28;20088;-68
2021/07/28 02:02:53;;;;;;;5.63;2.83;;;21.20;84.20;;;;;;5070350;28;20070;-68
2021/07/28 02:05:19;;;;;;;6.15;3.30;;;21.20;84.10;;;;;;5069993;28;20086;-68
2021/07/28 02:07:44;;;;;;;6.72;3.08;;;21.10;84.10;;;;;;5065179;28;20028;-68
2021/07/28 02:10:10;;;;;;;6.50;3.40;;;21.20;84.20;;;;;;5068004;28;20033;-67
2021/07/28 02:12:35;;;;;;;6.07;3.25;;;21.20;84.10;;;;;;5062754;28;20036;-68
2021/07/28 02:15:01;;;;;;;6.13;2.95;;;21.20;84.10;;;;;;5071159;28;20474;-68
2021/07/28 02:17:26;;;;;;;9.25;3.38;;;21.20;84.20;;;;;;5071317;28;20555;-68
2021/07/28 02:19:52;;;;;;;6.22;3.15;;;21.20;84.00;;;;;;5069955;28;20028;-68
2021/07/28 02:22:17;;;;;;;7.03;3.45;;;21.20;84.10;;;;;;5071378;28;20180;-68
2021/07/28 02:24:43;;;;;;;5.95;3.08;;;21.20;84.00;;;;;;5071066;28;20440;-68
2021/07/28 02:27:09;;;;;;;7.07;3.55;;;21.10;84.10;;;;;;5070009;28;20028;-68
2021/07/28 02:29:35;;;;;;;7.13;3.03;;;21.20;84.40;;;;;;5069797;28;20032;-68
2021/07/28 02:32:02;;;;;;;6.93;3.20;;;21.10;84.20;;;;;;5071199;28;20025;-67
2021/07/28 02:34:31;;;;;;;5.40;2.90;;;21.20;84.30;;;;;;5070651;28;20167;-68
2021/07/28 02:36:57;;;;;;;6.60;2.92;;;21.20;84.10;;;;;;5069983;28;20025;-68
2021/07/28 02:39:23;;;;;;;6.88;2.97;;;21.10;84.20;;;;;;5069738;28;20028;-67
2021/07/28 02:41:49;;;;;;;5.68;3.00;;;21.10;84.30;;;;;;5069859;28;20029;-67
2021/07/28 02:44:14;;;;;;;5.93;2.65;;;21.10;84.30;;;;;;5070000;28;20020;-66
2021/07/28 02:46:39;;;;;;;5.82;2.60;;;21.10;84.30;;;;;;5073081;28;20021;-67
2021/07/28 02:49:05;;;;;;;7.95;3.20;;;21.10;84.20;;;;;;5074924;28;20024;-68
2021/07/28 02:51:30;;;;;;;6.32;3.40;;;21.10;84.20;;;;;;5073462;28;20060;-68
2021/07/28 02:53:56;;;;;;;5.68;3.10;;;21.10;84.10;;;;;;5074825;28;20036;-68
2021/07/28 02:56:21;;;;;;;6.80;3.28;;;21.10;84.20;;;;;;5074441;28;20135;-68
2021/07/28 02:58:47;;;;;;;5.72;3.25;;;21.10;84.20;;;;;;5073198;28;20433;-68
2021/07/28 03:01:12;;;;;;;7.05;3.28;;;21.10;84.40;;;;;;5074572;28;20024;-68
2021/07/28 03:03:38;;;;;;;5.75;3.03;;;21.10;84.50;;;;;;5073291;28;20064;-68
2021/07/28 03:06:03;;;;;;;5.72;3.22;;;21.10;84.20;;;;;;5074343;28;20038;-68
2021/07/28 03:08:29;;;;;;;7.72;3.05;;;21.10;84.50;;;;;;5073166;28;20051;-68
2021/07/28 03:10:54;;;;;;;6.50;2.78;;;21.00;84.60;;;;;;5074359;28;20075;-68
2021/07/28 03:13:20;;;;;;;7.82;3.33;;;21.10;84.60;;;;;;5074442;28;20053;-68
2021/07/28 03:15:46;;;;;;;7.43;3.38;;;21.00;84.30;;;;;;5073998;28;20029;-68
2021/07/28 03:18:12;;;;;;;6.57;3.28;;;21.10;84.60;;;;;;5072996;28;20057;-68
2021/07/28 03:20:37;;;;;;;8.07;3.20;;;21.00;84.50;;;;;;5074188;28;20383;-68
2021/07/28 03:23:03;;;;;;;6.30;3.03;;;21.00;84.50;;;;;;5074286;28;20025;-68
2021/07/28 03:25:28;;;;;;;6.32;2.97;;;21.00;84.60;;;;;;5072643;28;20494;-68
2021/07/28 03:27:54;;;;;;;5.53;2.97;;;21.00;84.80;;;;;;5074148;28;20386;-68
2021/07/28 03:30:19;;;;;;;6.72;3.08;;;21.00;84.80;;;;;;5073860;28;20037;-68
2021/07/28 03:32:45;;;;;;;5.95;3.00;;;21.00;84.80;;;;;;5073762;28;20032;-68
2021/07/28 03:35:11;;;;;;;6.90;3.40;;;21.00;84.60;;;;;;5073714;28;20025;-68
2021/07/28 03:37:36;;;;;;;7.20;3.17;;;21.00;84.60;;;;;;5072689;28;20551;-68
2021/07/28 03:40:02;;;;;;;7.72;3.17;;;21.00;84.60;;;;;;5072507;28;20394;-68
2021/07/28 03:42:32;;;;;;;9.60;2.88;;;21.00;84.80;;;;;;5072477;28;20025;-68
2021/07/28 03:45:01;;;;;;;7.20;3.33;;;21.00;84.90;;;;;;5073523;28;20025;-68
2021/07/28 03:47:27;;;;;;;6.57;3.35;;;21.00;84.80;;;;;;5073787;28;20021;-67
2021/07/28 03:49:52;;;;;;;5.63;2.72;;;21.00;84.80;;;;;;5073693;28;20074;-67
2021/07/28 03:52:18;;;;;;;6.40;2.83;;;21.00;85.00;;;;;;5073712;28;20033;-67
2021/07/28 03:54:44;;;;;;;6.38;2.80;;;21.00;84.70;;;;;;5072072;28;20071;-67
2021/07/28 03:57:10;;;;;;;8.18;3.08;;;21.00;84.50;;;;;;5072479;28;20048;-68
2021/07/28 03:59:39;;;;;;;6.13;3.00;;;21.00;84.70;;;;;;5072094;28;20115;-68
2021/07/28 04:02:06;;;;;;;6.65;2.92;;;21.00;84.70;;;;;;5073517;28;20020;-67
2021/07/28 04:04:31;;;;;;;5.88;3.10;;;21.00;84.80;;;;;;5073192;28;20021;-68
2021/07/28 04:06:58;;;;;;;8.95;3.90;;;21.00;84.90;;;;;;5073396;28;20036;-67
2021/07/28 04:09:24;;;;;;;6.47;2.95;;;21.00;84.90;;;;;;5070073;28;20397;-68
2021/07/28 04:11:49;;;;;;;8.20;3.30;;;21.00;84.90;;;;;;5072902;28;20033;-67
2021/07/28 04:14:15;;;;;;;5.95;2.80;;;21.00;84.80;;;;;;5063423;28;20025;-66
2021/07/28 04:16:40;;;;;;;7.68;3.20;;;21.00;84.60;;;;;;5071712;28;20021;-66
2021/07/28 04:19:06;;;;;;;6.07;3.00;;;21.00;84.80;;;;;;5072206;28;20555;-68
2021/07/28 04:21:31;;;;;;;7.05;3.00;;;21.00;84.70;;;;;;5063448;28;20020;-68
2021/07/28 04:23:58;;;;;;;5.75;3.17;;;21.00;84.90;;;;;;5072992;28;20044;-67
2021/07/28 04:26:23;;;;;;;8.82;3.20;;;21.00;84.80;;;;;;5072550;28;20023;-68
2021/07/28 04:28:50;;;;;;;5.80;2.80;;;21.00;84.70;;;;;;5072732;28;20024;-67
2021/07/28 04:31:16;;;;;;;7.30;3.20;;;21.00;84.50;;;;;;5072959;28;20020;-68
2021/07/28 04:33:41;;;;;;;6.57;3.22;;;21.00;84.50;;;;;;5071281;28;20031;-67
2021/07/28 04:36:07;;;;;;;7.28;3.10;;;21.00;84.70;;;;;;5072560;28;20025;-68
2021/07/28 04:38:32;;;;;;;7.95;3.05;;;21.00;84.50;;;;;;5072603;28;20060;-68
2021/07/28 04:40:58;;;;;;;5.72;3.22;;;21.00;84.70;;;;;;5072578;28;20024;-68
2021/07/28 04:43:23;;;;;;;6.38;3.35;;;21.00;84.40;;;;;;5072695;28;20497;-68
2021/07/28 04:46:00;;;;;;;7.72;3.47;;;21.00;84.50;;;;;;5072301;28;20032;-68
2021/07/28 04:48:27;;;;;;;7.25;2.78;;;21.00;84.30;;;;;;5071322;28;20028;-68
2021/07/28 04:50:53;;;;;;;6.25;2.70;;;21.00;84.40;;;;;;5072307;28;20020;-68
2021/07/28 04:53:19;;;;;;;5.28;2.75;;;21.00;84.40;;;;;;5072498;28;20390;-68
2021/07/28 04:55:53;;;;;;;5.07;2.70;;;21.00;84.50;;;;;;5072113;28;20032;-68
2021/07/28 04:58:22;;;;;;;5.13;2.85;;;21.10;84.20;;;;;;5072401;28;20125;-68
2021/07/28 05:00:49;;;;;;;6.18;3.03;;;21.10;84.40;;;;;;5066234;28;20099;-68
2021/07/28 05:03:14;;;;;;;7.43;3.50;;;21.10;83.40;;;;;;5061291;28;20021;-67
2021/07/28 05:05:40;;;;;;;10.43;3.40;;;21.10;83.70;;;;;;5061214;28;20020;-68
2021/07/28 05:08:06;;;;;;;10.15;3.35;;;21.10;83.60;;;;;;5054428;28;20083;-66
2021/07/28 05:10:32;;;;;;;8.88;4.07;;;21.10;83.60;;;;;;5057109;28;20020;-69
2021/07/28 05:12:58;;;;;;;7.93;3.78;;;21.10;82.70;;;;;;5055894;28;20529;-68
2021/07/28 05:15:23;;;;;;;6.78;3.72;;;21.10;81.80;;;;;;5062312;28;20020;-68
2021/07/28 05:17:49;;;;;;;11.18;3.72;;;21.10;81.60;;;;;;5057306;28;20041;-69
2021/07/28 05:20:16;;;;;;;9.32;3.95;;;21.10;81.20;;;;;;5052860;28;20029;-71
2021/07/28 05:22:42;;;;;;;8.88;4.05;;;21.10;80.80;;;;;;5045298;28;20100;-68
2021/07/28 05:25:08;;;;;;;10.13;4.30;;;21.10;80.40;;;;;;5045091;28;20112;-68
2021/07/28 05:27:33;;;;;;;9.02;4.10;;;21.10;80.40;;;;;;5045352;28;20064;-70
2021/07/28 05:30:00;;;;;;;8.30;3.78;;;21.10;80.00;;;;;;5042426;28;20041;-69
2021/07/28 05:32:26;;;;;;;8.23;3.90;;;21.20;79.90;;;;;;5044987;28;20035;-70
2021/07/28 05:34:52;;;;;;;10.73;4.25;;;21.10;79.60;;;;;;5039470;28;20100;-69
2021/07/28 05:37:18;;;;;;;8.05;4.22;;;21.20;79.80;;;;;;5060042;28;20020;-68
2021/07/28 05:39:44;;;;;;;10.25;4.38;;;21.20;79.60;;;;;;5063817;28;20024;-68
2021/07/28 05:42:11;;;;;;;9.65;3.90;;;21.20;79.50;;;;;;5064284;28;20020;-66
2021/07/28 05:44:36;;;;;;;11.77;4.15;;;21.20;79.50;;;;;;5054710;28;20063;-69
2021/07/28 05:47:02;;;;;;;10.90;4.20;;;21.20;79.70;;;;;;5052558;28;20021;-69
2021/07/28 05:49:27;;;;;;;7.47;4.35;;;21.20;79.40;;;;;;5054054;28;20025;-68
2021/07/28 05:51:53;;;;;;;7.97;4.18;;;21.20;79.30;;;;;;5053862;28;20020;-67
2021/07/28 05:54:18;;;;;;;8.35;4.10;;;21.20;79.30;;;;;;5053766;28;20033;-67
2021/07/28 05:56:44;;;;;;;7.68;4.15;;;21.20;79.30;;;;;;5053873;28;20028;-68
2021/07/28 05:59:09;;;;;;;7.78;3.80;;;21.10;79.40;;;;;;5064595;28;20115;-68
2021/07/28 06:01:35;;;;;;;7.18;3.75;;;21.10;79.50;;;;;;5052236;28;20037;-69
2021/07/28 06:04:00;;;;;;;8.02;3.72;;;21.20;79.60;;;;;;5043018;28;20025;-68
2021/07/28 06:06:26;;;;;;;9.18;3.83;;;21.20;79.60;;;;;;5053086;28;20033;-68
2021/07/28 06:08:55;;;;;;;8.30;3.92;;;21.20;79.50;;;;;;5053851;28;20486;-68
2021/07/28 06:11:21;;;;;;;7.47;3.63;;;21.20;79.70;;;;;;5053036;28;20032;-69
2021/07/28 06:13:46;;;;;;;7.80;3.95;;;21.30;79.30;;;;;;5053381;28;20020;-70
2021/07/28 06:16:12;;;;;;;8.50;3.83;;;21.30;79.30;;;;;;5052448;28;20525;-70
2021/07/28 06:18:37;;;;;;;8.30;4.28;;;21.30;79.50;;;;;;5057389;28;20031;-69
2021/07/28 06:21:03;;;;;;;6.90;3.60;;;21.20;79.00;;;;;;5052425;28;20021;-69
2021/07/28 06:23:29;;;;;;;7.70;4.35;;;21.20;79.40;;;;;;5057555;28;20067;-69
2021/07/28 06:25:54;;;;;;;7.78;4.75;;;21.30;79.20;;;;;;5052740;28;20120;-69
2021/07/28 06:28:20;;;;;;;7.78;4.47;;;21.30;79.10;;;;;;5051733;28;20043;-68
2021/07/28 06:30:45;;;;;;;7.47;4.20;;;21.30;79.20;;;;;;5057994;28;20029;-69
2021/07/28 06:33:11;;;;;;;6.88;4.20;;;21.40;79.60;;;;;;5059282;28;20078;-69
2021/07/28 06:35:36;;;;;;;10.23;4.85;;;21.40;78.60;;;;;;5056708;28;20570;-69
2021/07/28 06:38:03;;;;;;;9.27;4.47;;;21.40;78.90;;;;;;5058947;28;20116;-69
2021/07/28 06:40:29;;;;;;;8.45;4.38;;;21.40;79.00;;;;;;5051567;28;20056;-70
2021/07/28 06:42:54;;;;;;;7.88;4.40;;;21.30;79.20;;;;;;5057815;28;20056;-73
2021/07/28 06:45:20;;;;;;;7.65;4.38;;;21.30;79.00;;;;;;5057595;28;20101;-68
2021/07/28 06:47:45;;;;;;;7.90;4.32;;;21.50;78.60;;;;;;5067337;28;20478;-70
2021/07/28 06:50:11;;;;;;;9.32;4.40;;;21.70;78.10;;;;;;5066713;28;20028;-70
2021/07/28 06:52:37;;;;;;;7.45;3.92;;;21.70;77.80;;;;;;5067093;28;20359;-70
2021/07/28 06:55:03;;;;;;;6.93;4.13;;;21.80;77.70;;;;;;5066625;28;20131;-68
2021/07/28 06:57:29;;;;;;;9.02;4.47;;;21.80;77.30;;;;;;5066772;28;20060;-69
2021/07/28 06:59:55;;;;;;;7.45;3.90;;;22.00;77.40;;;;;;5068308;28;20020;-68
2021/07/28 07:02:21;;;;;;;7.03;4.20;;;22.00;77.40;;;;;;5068194;28;20560;-67
2021/07/28 07:04:47;;;;;;;6.43;3.63;;;22.10;76.80;;;;;;5064929;28;20025;-69
2021/07/28 07:07:12;;;;;;;7.05;4.00;;;22.10;77.30;;;;;;5067963;28;20025;-68
2021/07/28 07:09:38;;;;;;;8.43;5.00;;;22.00;77.30;;;;;;5067144;28;20025;-69
2021/07/28 07:12:03;;;;;;;7.60;4.65;;;21.90;76.90;;;;;;5064512;28;20028;-71
2021/07/28 07:14:29;;;;;;;7.80;4.63;;;21.80;77.80;;;;;;5059323;28;20553;-69
2021/07/28 07:16:56;;;;;;;8.65;4.78;;;21.80;77.40;;;;;;5062020;28;20028;-68
2021/07/28 07:19:21;;;;;;;9.00;4.60;;;21.80;77.10;;;;;;5060164;28;20053;-69
2021/07/28 07:21:47;;;;;;;10.98;4.60;;;21.90;76.80;;;;;;5058341;28;20060;-69
2021/07/28 07:24:13;;;;;;;7.55;4.35;;;21.90;76.70;;;;;;5058772;28;20048;-68
2021/07/28 07:26:38;;;;;;;9.27;4.10;;;21.90;76.70;;;;;;5056844;28;20035;-68
2021/07/28 07:29:04;;;;;;;9.30;4.47;;;22.00;77.00;;;;;;5067621;28;20044;-68
2021/07/28 07:31:29;;;;;;;8.25;4.38;;;22.10;76.50;;;;;;5067696;28;20041;-70
2021/07/28 07:33:55;;;;;;;9.23;4.35;;;22.20;76.00;;;;;;5066151;28;20103;-69
2021/07/28 07:36:23;;;;;;;7.93;4.70;;;22.10;75.90;;;;;;5067026;28;20105;-70
2021/07/28 07:38:48;;;;;;;8.05;4.57;;;22.30;75.30;;;;;;5067223;28;20108;-69
2021/07/28 07:41:15;;;;;;;8.02;4.35;;;22.40;75.00;;;;;;5066953;28;20115;-67
2021/07/28 07:43:41;;;;;;;9.27;4.43;;;22.50;74.40;;;;;;5067025;28;20016;-69
2021/07/28 07:46:07;;;;;;;7.30;4.35;;;22.60;74.70;;;;;;5066565;28;20393;-68
2021/07/28 07:48:33;;;;;;;7.75;4.05;;;22.60;74.50;;;;;;5066154;28;20039;-69
2021/07/28 07:50:58;;;;;;;8.38;5.00;;;22.60;74.30;;;;;;5059073;28;20032;-71
2021/07/28 07:53:24;;;;;;;7.30;4.15;;;22.50;74.00;;;;;;5066820;28;20024;-70
2021/07/28 07:55:50;;;;;;;10.45;4.35;;;22.40;74.90;;;;;;5066728;28;20029;-71
2021/07/28 07:58:15;;;;;;;8.15;4.40;;;22.50;74.30;;;;;;5066471;28;20078;-67
2021/07/28 08:00:41;;;;;;;7.28;4.15;;;22.50;74.40;;;;;;5065006;28;20056;-68
2021/07/28 08:03:06;;;;;;;8.35;4.60;;;22.50;74.50;;;;;;5065278;28;20039;-68
2021/07/28 08:05:32;;;;;;;7.43;4.72;;;22.40;75.20;;;;;;5064188;28;20043;-68
2021/07/28 08:07:58;;;;;;;8.65;5.18;;;22.30;74.80;;;;;;5066689;28;20024;-69
2021/07/28 08:10:23;;;;;;;6.97;4.30;;;22.30;75.20;;;;;;5066012;28;20078;-68
2021/07/28 08:12:49;;;;;;;7.28;4.20;;;22.30;74.90;;;;;;5066526;28;20120;-68
2021/07/28 08:15:15;;;;;;;8.35;4.90;;;22.30;74.70;;;;;;5065996;28;20036;-67
2021/07/28 08:17:41;;;;;;;7.90;5.00;;;22.30;75.00;;;;;;5066347;28;20034;-68
2021/07/28 08:20:07;;;;;;;8.63;4.65;;;22.30;74.90;;;;;;5066028;28;20037;-68
2021/07/28 08:22:33;;;;;;;9.85;4.72;;;22.50;74.90;;;;;;5066228;28;20031;-68
2021/07/28 08:24:58;;;;;;;7.97;4.47;;;22.50;74.10;;;;;;5066021;28;20096;-68
2021/07/28 08:27:26;;;;;;;7.45;4.25;;;22.60;73.60;;;;;;5066337;28;20028;-69
2021/07/28 08:29:52;;;;;;;7.95;4.53;;;22.70;73.30;;;;;;5066345;28;20036;-70
2021/07/28 08:32:18;;;;;;;7.55;4.60;;;22.70;73.70;;;;;;5065795;28;20043;-68
2021/07/28 08:34:44;;;;;;;8.00;4.50;;;22.60;73.50;;;;;;5065630;28;20485;-68
2021/07/28 08:37:09;;;;;;;6.88;4.18;;;22.60;73.20;;;;;;5066032;28;20383;-68
2021/07/28 08:39:35;;;;;;;7.75;4.97;;;22.60;73.40;;;;;;5063473;28;20447;-68
2021/07/28 08:42:06;;;;;;;6.70;4.35;;;22.60;73.70;;;;;;5055581;28;20019;-68
2021/07/28 08:44:34;;;;;;;7.57;4.72;;;22.60;73.60;;;;;;5055110;28;20681;-69
2021/07/28 08:47:00;;;;;;;8.57;4.55;;;22.60;73.30;;;;;;5053179;28;20029;-68
2021/07/28 08:49:27;;;;;;;7.20;4.25;;;22.70;72.90;;;;;;5056127;28;20078;-69
2021/07/28 08:51:53;;;;;;;8.82;4.40;;;22.70;73.10;;;;;;5064450;28;20032;-68
2021/07/28 08:54:19;;;;;;;9.18;4.70;;;22.70;73.20;;;;;;5065935;28;20037;-70
2021/07/28 08:56:46;;;;;;;9.20;4.82;;;22.70;73.30;;;;;;5066412;28;20091;-68
2021/07/28 08:59:28;;;;;;;7.57;4.45;;;22.80;73.10;;;;;;5059618;28;20095;-70
2021/07/28 09:01:58;;;;;;;9.63;4.80;;;22.80;73.10;;;;;;5063852;28;20020;-70
2021/07/28 09:04:25;;;;;;;7.38;4.45;;;23.00;72.90;;;;;;5065845;28;20056;-67
2021/07/28 09:06:51;;;;;;;7.95;4.70;;;22.90;72.70;;;;;;5065895;28;20107;-69
2021/07/28 09:09:16;;;;;;;7.43;4.07;;;22.90;72.90;;;;;;5064624;28;20791;-68
2021/07/28 09:11:59;;;;;;;8.93;4.63;;;22.90;72.50;;;;;;5066524;28;20102;-70
2021/07/28 09:14:29;;;;;;;9.13;4.53;;;22.90;72.60;;;;;;5064845;28;20021;-69
2021/07/28 09:17:16;;;;;;;7.80;4.45;;;23.10;72.40;;;;;;5066036;28;20444;-70
2021/07/28 09:19:46;;;;;;;7.75;4.38;;;23.10;72.90;;;;;;5065845;28;20037;-69
2021/07/28 09:22:12;;;;;;;8.07;4.68;;;23.10;72.50;;;;;;5064386;28;20257;-68
2021/07/28 09:24:39;;;;;;;7.90;4.60;;;23.10;72.30;;;;;;5063720;28;20061;-70
2021/07/28 09:27:05;;;;;;;7.32;4.22;;;23.00;72.50;;;;;;5064680;28;20095;-68
2021/07/28 09:29:32;;;;;;;7.90;4.22;;;23.00;72.90;;;;;;5065325;28;20032;-67
2021/07/28 09:32:04;;;;;;;7.70;4.00;;;23.00;72.10;;;;;;5058789;28;20031;-68
2021/07/28 09:34:31;;;;;;;;;;;22.90;72.60;;;;;;5044960;28;20137;-68
2021/07/28 09:37:01;;;;;;;7.97;4.25;;;22.90;72.70;;;;;;5055353;28;19909;-69
2021/07/28 09:39:38;;;;;;;6.78;4.25;;;23.00;72.70;;;;;;5050482;28;20025;-69
2021/07/28 09:42:18;;;;;;;6.97;3.80;;;23.00;72.40;;;;;;5050912;28;20025;-68
2021/07/28 09:44:46;;;;;;;7.85;4.10;;;23.00;73.10;;;;;;5050394;28;20520;-68
2021/07/28 09:47:14;;;;;;;7.15;4.25;;;23.00;72.60;;;;;;5049538;28;20059;-69
2021/07/28 09:49:42;;;;;;;10.73;4.82;;;23.00;73.00;;;;;;5050093;28;20028;-69
2021/07/28 09:52:18;;;;;;;8.55;4.10;;;23.00;73.80;;;;;;5051317;28;20394;-69
2021/07/28 09:54:43;;;;;;;9.02;4.60;;;23.00;74.50;;;;;;5049436;28;20032;-69
2021/07/28 09:57:14;;;;;;;7.25;4.25;;;22.90;74.90;;;;;;5050910;28;20021;-68
2021/07/28 09:59:42;;;;;;;8.10;4.53;;;22.90;75.60;;;;;;5049936;28;20033;-67
2021/07/28 10:02:08;;;;;;;8.25;4.65;;;23.00;75.80;;;;;;5051349;28;20021;-69
2021/07/28 10:04:34;;;;;;;7.13;3.97;;;23.20;75.50;;;;;;5051170;28;20467;-68
2021/07/28 10:07:03;;;;;;;8.30;4.07;;;23.20;75.50;;;;;;5051537;28;20033;-69
2021/07/28 10:09:42;;;;;;;7.70;4.00;;;23.30;75.70;;;;;;5051234;28;20442;-68
2021/07/28 10:12:08;;;;;;;7.00;4.10;;;23.40;75.90;;;;;;5051494;28;20099;-68
2021/07/28 10:14:35;;;;;;;6.97;3.90;;;23.50;76.10;;;;;;5049836;28;20057;-69
2021/07/28 10:17:02;;;;;;;10.50;4.35;;;23.40;76.80;;;;;;5051208;28;20078;-68
2021/07/28 10:19:29;;;;;;;7.60;4.22;;;23.40;77.00;;;;;;5050955;28;20024;-69
2021/07/28 10:21:57;;;;;;;7.18;4.38;;;23.30;77.20;;;;;;5050072;28;20029;-68
2021/07/28 10:24:23;;;;;;;6.18;3.88;;;23.30;77.20;;;;;;5050856;28;20064;-67
2021/07/28 10:26:52;;;;;;;7.57;4.05;;;23.30;77.10;;;;;;5051203;28;20283;-68
2021/07/28 10:29:18;;;;;;;7.55;3.72;;;23.20;77.00;;;;;;5051050;28;20029;-68
2021/07/28 10:31:49;;;;;;;6.82;3.63;;;23.20;76.60;;;;;;5050569;28;20375;-69
2021/07/28 10:34:35;;;;;;;6.65;3.20;;;23.10;76.80;;;;;;5051275;28;20021;-66
2021/07/28 10:37:05;;;;;;;6.50;3.05;;;23.10;77.70;;;;;;5051289;28;20032;-68
2021/07/28 10:39:34;;;;;;;5.10;2.42;;;23.00;77.90;;;;;;5050971;28;20104;-68
2021/07/28 10:41:59;;;;;;;4.90;2.28;;;22.90;77.70;;;;;;5051112;28;20025;-68
2021/07/28 10:44:25;;;;;;;5.35;2.17;;;22.90;77.40;;;;;;5049337;28;20414;-67
2021/07/28 10:46:54;;;;;;;6.82;2.25;;;22.90;76.90;;;;;;5050842;28;20025;-68
2021/07/28 10:49:43;;;;;;;4.47;2.10;;;22.90;76.70;;;;;;5050987;28;20068;-68
2021/07/28 10:52:13;;;;;;;4.47;1.55;;;22.90;76.20;;;;;;5049791;28;20075;-69
2021/07/28 10:54:48;;;;;;;4.57;1.90;;;22.90;76.70;;;;;;5050810;28;20180;-68
2021/07/28 10:57:32;;;;;;;4.55;1.90;;;22.90;76.30;;;;;;5051008;28;20021;-68
2021/07/28 11:00:03;;;;;;;3.40;1.48;;;23.00;76.60;;;;;;5050835;28;20029;-68
2021/07/28 11:02:56;;;;;;;3.83;1.38;;;23.00;76.90;;;;;;5049805;28;20426;-69
2021/07/28 11:05:49;;;;;;;4.78;1.80;;;23.00;76.50;;;;;;5050608;28;20437;-68
2021/07/28 11:08:20;;;;;;;3.53;1.30;;;23.00;76.30;;;;;;5048579;28;20029;-68
2021/07/28 11:10:45;;;;;;;3.38;1.50;;;23.00;76.60;;;;;;5053093;28;20036;-68
2021/07/28 11:13:13;;;;;;;3.45;1.70;;;23.10;76.50;;;;;;5053194;28;20017;-68
2021/07/28 11:15:41;;;;;;;2.80;1.52;;;23.00;76.10;;;;;;5054000;28;20032;-69
2021/07/28 11:18:07;;;;;;;4.32;1.50;;;23.10;76.40;;;;;;5054387;28;20047;-68
2021/07/28 11:20:35;;;;;;;3.47;1.58;;;23.10;76.30;;;;;;5052885;28;20446;-68
2021/07/28 11:23:27;;;;;;;4.85;2.00;;;23.10;76.60;;;;;;5053007;28;20020;-69
2021/07/28 11:25:57;;;;;;;3.55;1.70;;;23.00;76.40;;;;;;5053948;28;20014;-70
2021/07/28 11:28:24;;;;;;;3.95;1.83;;;23.00;76.30;;;;;;5054067;28;20482;-69
2021/07/28 11:31:10;;;;;;;3.85;1.80;;;23.00;76.70;;;;;;5052594;28;20041;-68
2021/07/28 11:33:36;;;;;;;4.03;2.00;;;23.00;77.10;;;;;;5052784;28;20112;-69
2021/07/28 11:36:03;;;;;;;2.90;1.50;;;23.00;77.10;;;;;;5053736;28;20048;-69
2021/07/28 11:38:47;;;;;;;4.07;2.08;;;23.00;76.00;;;;;;5052640;28;20502;-68
2021/07/28 11:41:12;;;;;;;4.60;1.80;;;23.00;76.40;;;;;;5054334;28;20021;-68
2021/07/28 11:43:41;;;;;;;4.90;2.13;;;23.00;76.20;;;;;;5052521;28;20017;-69
2021/07/28 11:46:18;;;;;;;3.78;2.05;;;23.00;76.90;;;;;;5053542;28;20025;-68
2021/07/28 11:48:45;;;;;;;4.45;2.20;;;23.00;77.20;;;;;;5053749;28;20025;-69
2021/07/28 11:51:22;;;;;;;6.55;2.72;;;23.10;77.20;;;;;;5053712;28;20075;-68
2021/07/28 11:53:47;;;;;;;5.32;2.53;;;23.00;77.30;;;;;;5052460;28;20028;-68
2021/07/28 11:56:14;;;;;;;4.60;2.38;;;23.00;77.00;;;;;;5051987;28;20025;-68
2021/07/28 11:58:48;;;;;;;3.80;2.22;;;23.00;77.00;;;;;;5053514;28;20028;-69
2021/07/28 12:01:34;;;;;;;5.65;3.25;;;23.00;77.70;;;;;;5053545;28;20029;-68
2021/07/28 12:04:05;;;;;;;4.20;2.28;;;23.00;76.40;;;;;;5053532;28;20017;-68
2021/07/28 12:06:38;;;;;;;6.13;2.70;;;23.10;77.30;;;;;;5051820;28;20504;-68
2021/07/28 12:09:24;;;;;;;5.32;3.05;;;23.10;77.40;;;;;;5052073;28;20025;-69
2021/07/28 12:11:49;;;;;;;5.28;2.58;;;23.10;77.10;;;;;;5053416;28;20032;-69
2021/07/28 12:14:31;;;;;;;4.90;3.03;;;23.10;76.90;;;;;;5053131;28;20029;-67
2021/07/28 12:17:00;;;;;;;6.03;3.08;;;23.10;77.80;;;;;;5053085;28;20059;-69
2021/07/28 12:19:39;;;;;;;5.82;3.30;;;23.10;76.10;;;;;;5051913;28;20049;-68
2021/07/28 12:22:11;;;;;;;5.57;3.33;;;23.10;75.20;;;;;;5052967;28;20029;-69
2021/07/28 12:24:46;;;;;;;6.38;3.38;;;23.10;76.40;;;;;;5051238;28;20075;-69
2021/07/28 12:27:29;;;;;;;5.45;3.58;;;23.10;75.20;;;;;;5052826;28;20433;-69
2021/07/28 12:29:58;;;;;;;6.25;3.70;;;23.10;74.40;;;;;;5052693;28;20033;-69
2021/07/28 12:32:41;;;;;;;5.70;3.28;;;23.10;74.40;;;;;;5052239;28;20052;-69
2021/07/28 12:35:30;;;;;;;6.10;3.50;;;23.10;74.80;;;;;;5052606;28;20103;-69
2021/07/28 12:38:05;;;;;;;6.00;3.58;;;23.10;74.10;;;;;;5051594;28;20564;-69
2021/07/28 12:40:31;;;;;;;7.43;3.67;;;23.20;73.70;;;;;;5052505;28;20028;-68
2021/07/28 12:42:57;;;;;;;7.05;3.30;;;23.20;74.00;;;;;;5052727;28;20021;-69
2021/07/28 12:45:23;;;;;;;6.07;3.58;;;23.20;74.00;;;;;;5052623;28;20025;-69
2021/07/28 12:47:49;;;;;;;5.72;3.58;;;23.20;73.50;;;;;;5052397;28;20052;-69
2021/07/28 12:50:15;;;;;;;6.20;3.45;;;23.20;72.80;;;;;;5052720;28;20048;-69
2021/07/28 12:52:43;;;;;;;5.90;3.22;;;23.20;72.40;;;;;;5051182;28;20024;-68
2021/07/28 12:55:09;;;;;;;5.65;3.28;;;23.20;71.40;;;;;;5051996;28;20043;-68
2021/07/28 12:57:35;;;;;;;6.82;3.60;;;23.20;71.00;;;;;;5052224;28;20029;-69